Latest Weather Observations for Perth

IDW60801

Issued at 1:03 pm WST Monday 26 September 2016 (issued every 30 minutes, with the page automatically refreshed every 10 minutes)

About weather observations | Map of weather stations | Latest weather observations for WA | Other Formats
Station Details ID: 009225 Name: PERTH METRO Lat: -31.92 Lon: 115.87 Height: 24.9 m
Data from the previous 72 hours. | See also: Recent months at Perth
Date/Time
WST
Temp
°C
App
Temp
°C
Dew
Point
°C
Rel
Hum
%
Delta-T
°C
Wind Press
QNH
hPa
Press
MSL
hPa
Rain since
9am
mm
Dir  Spd
km/h
Gust
km/h
Spd
kts
Gust
kts
26/01:00pm 16.9 14.2 8.8 59 4.2 W 13 24 7 13 1019.5 1019.4 0.0
26/12:30pm 17.0 14.4 9.4 61 4.0 W 13 28 7 15 1020.1 1020.1 0.0
26/12:00pm 17.6 14.9 9.0 57 4.5 WNW 13 24 7 13 1020.2 1020.2 0.0
26/11:30am 17.1 14.2 8.0 55 4.6 WNW 13 20 7 11 1020.3 1020.3 0.0
26/11:00am 16.9 13.4 7.3 53 4.8 W 15 24 8 13 1020.5 1020.5 0.0
26/10:30am 17.6 14.3 8.2 54 4.8 W 15 24 8 13 1021.1 1021.1 0.0
26/10:00am 16.1 13.1 7.6 57 4.2 W 13 24 7 13 1021.1 1021.1 0.0
26/09:30am 16.0 13.7 7.5 57 4.2 WNW 9 19 5 10 1020.9 1020.9 0.0
26/09:00am 14.4 11.9 8.4 67 3.0 NNE 11 17 6 9 1021.1 1021.1 0.2
26/08:30am 12.4 10.2 7.7 73 2.3 NE 9 11 5 6 1021.0 1021.0 0.2
26/08:00am 11.0 9.0 6.9 76 1.9 NNE 7 13 4 7 1020.9 1020.9 0.2
26/07:30am 9.1 6.9 6.4 83 1.2 S 7 11 4 6 1020.8 1020.8 0.2
26/07:00am 7.4 5.2 6.3 93 0.5 SSW 7 9 4 5 1020.7 1020.7 0.2
26/06:30am 6.0 4.2 5.6 97 0.2 SSW 4 7 2 4 1020.6 1020.6 0.2
26/06:00am 5.5 4.0 5.1 97 0.2 SSW 2 7 1 4 1020.5 1020.5 0.2
26/05:30am 5.2 4.0 4.8 97 0.2 CALM 0 0 0 0 1020.2 1020.2 0.2
26/05:00am 4.6 3.3 4.0 96 0.3 CALM 0 0 0 0 1020.1 1020.1 0.2
26/04:30am 5.0 3.8 4.4 96 0.3 CALM 0 0 0 0 1020.0 1020.0 0.2
26/04:00am 5.2 4.0 4.5 95 0.3 CALM 0 0 0 0 1020.2 1020.2 0.2
26/03:30am 5.2 4.0 4.5 95 0.3 CALM 0 0 0 0 1020.3 1020.3 0.2
26/03:00am 5.3 4.1 4.4 94 0.4 CALM 0 0 0 0 1020.0 1020.0 0.2
26/02:30am 5.6 4.4 4.7 94 0.4 CALM 0 0 0 0 1020.1 1020.1 0.2
26/02:00am 5.7 4.5 4.8 94 0.4 CALM 0 0 0 0 1020.3 1020.3 0.2
26/01:30am 5.8 4.6 4.6 92 0.5 CALM 0 0 0 0 1020.3 1020.3 0.2
26/01:00am 6.1 4.9 4.7 91 0.6 CALM 0 0 0 0 1020.4 1020.4 0.2
26/12:30am 6.6 5.5 5.1 90 0.7 CALM 0 0 0 0 1020.8 1020.8 0.2
26/12:00am 7.0 5.9 5.3 89 0.7 CALM 0 0 0 0 1021.1 1021.1 0.2
 
Date/Time
WST
Temp
°C
App
Temp
°C
Dew
Point
°C
Rel
Hum
%
Delta-T
°C
Wind Press
QNH
hPa
Press
MSL
hPa
Rain since
9am
mm
Dir  Spd
km/h
Gust
km/h
Spd
kts
Gust
kts
25/11:30pm 7.4 6.4 5.4 87 0.9 CALM 0 0 0 0 1021.1 1021.1 0.2
25/11:00pm 8.2 7.1 5.3 82 1.3 CALM 0 0 0 0 1020.9 1020.9 0.2
25/10:30pm 9.4 8.0 5.4 76 1.8 SSW 2 7 1 4 1021.0 1021.0 0.2
25/10:00pm 10.3 8.5 5.3 71 2.3 SSW 4 9 2 5 1021.1 1021.1 0.2
25/09:30pm 11.3 8.6 5.4 67 2.7 SSW 9 15 5 8 1021.2 1021.2 0.2
25/09:00pm 11.3 8.5 5.2 66 2.8 SSW 9 13 5 7 1021.2 1021.2 0.2
25/08:30pm 11.7 8.8 4.9 63 3.1 SSW 9 17 5 9 1021.0 1021.0 0.2
25/08:00pm 12.2 8.9 4.4 59 3.5 SSW 11 17 6 9 1021.1 1021.1 0.2
25/07:30pm 12.4 8.6 4.1 57 3.7 SSW 13 19 7 10 1020.6 1020.6 0.2
25/07:00pm 12.5 8.7 4.0 56 3.8 SSW 13 20 7 11 1020.2 1020.2 0.2
25/06:30pm 12.5 9.1 4.2 57 3.8 SSW 11 20 6 11 1019.9 1019.9 0.2
25/06:00pm 13.1 9.0 4.3 55 4.0 SSW 15 24 8 13 1019.5 1019.4 0.2
25/05:30pm 13.7 9.3 4.8 55 4.1 SW 17 28 9 15 1019.1 1019.0 0.2
25/05:00pm 14.4 9.7 5.2 54 4.3 SSW 19 33 10 18 1018.9 1018.8 0.2
25/04:30pm 15.0 10.3 5.2 52 4.6 SW 19 33 10 18 1018.5 1018.4 0.2
25/04:00pm 15.8 11.5 5.4 50 5.0 SSW 17 28 9 15 1018.2 1018.1 0.2
25/03:30pm 15.9 11.7 5.5 50 5.0 SSW 17 32 9 17 1018.0 1017.9 0.2
25/03:00pm 16.1 11.8 5.4 49 5.1 SW 17 26 9 14 1017.8 1017.7 0.2
25/02:30pm 16.2 11.5 5.2 48 5.2 SW 19 32 10 17 1017.6 1017.5 0.2
25/02:00pm 16.1 12.0 4.2 45 5.5 SW 15 28 8 15 1017.6 1017.5 0.2
25/01:30pm 16.3 12.2 6.2 51 4.9 SW 17 26 9 14 1017.6 1017.5 0.2
25/01:00pm 15.4 11.5 5.3 51 4.8 SW 15 26 8 14 1017.8 1017.7 0.0
25/12:30pm 15.2 11.4 5.7 53 4.5 SW 15 26 8 14 1018.3 1018.2 0.0
25/12:00pm 15.3 12.3 7.6 60 3.8 S 13 24 7 13 1018.3 1018.2 0.0
25/11:30am 14.1 10.1 6.7 61 3.6 SSW 17 26 9 14 1018.6 1018.5 0.0
25/11:00am 14.0 11.2 6.8 62 3.5 SSE 11 17 6 9 1018.4 1018.3 0.0
25/10:30am 14.8 12.3 8.1 64 3.4 SSE 11 19 6 10 1018.4 1018.3 0.0
25/10:00am 14.0 10.5 8.6 70 2.7 SSE 17 28 9 15 1018.4 1018.3 0.0
25/09:30am 12.6 9.3 8.1 74 2.2 S 15 22 8 12 1018.4 1018.3 0.0
25/09:00am 12.2 9.2 9.2 82 1.5 SSE 15 24 8 13 1018.1 1018.0 15.6
25/08:30am 11.1 8.7 10.0 93 0.6 SSE 13 20 7 11 1017.8 1017.7 15.6
25/08:00am 10.6 8.3 10.3 98 0.2 S 13 20 7 11 1017.5 1017.4 15.6
25/07:30am 10.1 8.1 10.0 99 0.1 S 11 19 6 10 1017.2 1017.1 15.4
25/07:00am 9.8 9.8 9.7 99 0.0 CALM 0 0 0 0 1016.3 1016.2 14.4
25/06:30am 9.5 9.4 9.4 99 0.0 CALM 0 0 0 0 1015.7 1015.6 14.2
25/06:00am 9.2 9.0 8.9 98 0.1 CALM 0 0 0 0 1015.1 1015.0 13.6
25/05:30am 9.5 8.2 9.2 98 0.1 NNE 6 7 3 4 1014.7 1014.6 13.6
25/05:00am 9.5 9.3 9.2 98 0.1 CALM 0 0 0 0 1014.7 1014.6 13.6
25/04:30am 9.7 8.5 9.4 98 0.1 NNE 6 9 3 5 1014.7 1014.6 13.6
25/04:00am 9.6 8.7 9.1 97 0.2 NNE 4 9 2 5 1014.8 1014.7 13.0
25/03:30am 9.7 9.1 9.1 96 0.3 NNE 2 6 1 3 1014.8 1014.7 10.4
25/03:00am 9.7 8.2 9.1 96 0.3 NNE 7 11 4 6 1014.6 1014.5 9.2
25/02:30am 9.9 8.4 9.3 96 0.3 NNE 7 11 4 6 1014.5 1014.4 8.8
25/02:00am 10.1 9.9 9.0 93 0.5 CALM 0 0 0 0 1014.8 1014.7 5.8
25/01:30am 10.2 9.6 8.8 91 0.7 NNW 2 6 1 3 1014.6 1014.5 2.8
25/01:00am 10.7 8.9 7.9 83 1.4 SSE 7 11 4 6 1014.6 1014.5 0.0
25/12:30am 10.1 8.7 7.3 83 1.3 SSE 4 7 2 4 1014.3 1014.2 0.0
25/12:00am 10.5 9.6 7.6 82 1.4 SSE 2 7 1 4 1014.3 1014.2 0.0
 
Date/Time
WST
Temp
°C
App
Temp
°C
Dew
Point
°C
Rel
Hum
%
Delta-T
°C
Wind Press
QNH
hPa
Press
MSL
hPa
Rain since
9am
mm
Dir  Spd
km/h
Gust
km/h
Spd
kts
Gust
kts
24/11:30pm 10.5 8.6 7.6 82 1.4 SSE 7 13 4 7 1014.6 1014.5 0.0
24/11:00pm 10.1 8.1 7.2 82 1.4 NNE 7 9 4 5 1014.4 1014.3 0.0
24/10:30pm 10.1 8.2 7.5 84 1.2 NNE 7 11 4 6 1014.7 1014.6 0.0
24/10:00pm 10.2 8.6 7.8 85 1.2 NW 6 7 3 4 1015.1 1015.0 0.0
24/09:30pm 9.1 8.4 7.1 87 0.9 CALM 0 0 0 0 1015.1 1015.0 0.0
24/09:00pm 9.2 8.4 6.6 84 1.2 CALM 0 0 0 0 1015.2 1015.1 0.0
24/08:30pm 9.8 9.0 6.5 80 1.5 CALM 0 0 0 0 1015.1 1015.0 0.0
24/08:00pm 10.3 9.5 6.6 78 1.7 CALM 0 0 0 0 1015.2 1015.1 0.0
24/07:30pm 11.3 10.5 6.4 72 2.3 CALM 0 0 0 0 1015.1 1015.0 0.0
24/07:00pm 12.5 11.2 6.1 65 3.0 NW 2 9 1 5 1015.2 1015.1 0.0
24/06:30pm 13.2 10.9 5.9 61 3.5 NW 7 15 4 8 1015.0 1014.9 0.0
24/06:00pm 13.9 10.9 6.0 59 3.8 NW 11 17 6 9 1014.8 1014.7 0.0
24/05:30pm 14.6 12.0 5.9 56 4.2 NW 9 17 5 9 1014.8 1014.7 0.0
24/05:00pm 15.3 12.9 6.8 57 4.2 NW 9 15 5 8 1014.5 1014.4 0.0
24/04:30pm 15.3 12.4 6.3 55 4.4 NW 11 22 6 12 1014.7 1014.6 0.0
24/04:00pm 15.6 12.7 6.6 55 4.4 NW 11 20 6 11 1014.5 1014.4 0.0
24/03:30pm 16.7 13.7 6.2 50 5.1 WNW 11 22 6 12 1014.5 1014.4 0.0
24/03:00pm 16.5 12.7 5.8 49 5.2 WNW 15 24 8 13 1014.5 1014.4 0.0
24/02:30pm 16.9 13.4 5.5 47 5.5 NW 13 22 7 12 1014.7 1014.6 0.0
24/02:00pm 16.6 13.1 5.3 47 5.4 NW 13 22 7 12 1014.9 1014.8 0.0
24/01:30pm 16.3 13.3 5.9 50 5.0 NW 11 24 6 13 1015.3 1015.2 0.0
24/01:00pm 16.0 13.0 5.9 51 4.9 WNW 11 22 6 12 1015.7 1015.6 0.0
24/12:30pm 15.7 12.1 5.0 49 5.1 WNW 13 22 7 12 1016.4 1016.3 0.0
24/12:00pm 15.4 12.7 5.6 52 4.7 NNE 9 15 5 8 1016.7 1016.6 0.0
24/11:30am 14.7 11.9 5.0 52 4.6 NNW 9 17 5 9 1017.1 1017.0 0.0
24/11:00am 15.3 12.9 5.2 51 4.8 NNE 7 15 4 8 1017.4 1017.3 0.0
24/10:30am 13.7 11.2 4.6 54 4.2 N 7 15 4 8 1017.9 1017.8 0.0
24/10:00am 13.5 11.3 6.1 61 3.5 NE 7 13 4 7 1018.1 1018.0 0.0
24/09:30am 11.3 9.1 5.2 66 2.8 NE 6 7 3 4 1018.4 1018.3 0.0
24/09:00am 10.5 8.3 5.5 71 2.3 NE 6 11 3 6 1018.4 1018.3 1.2
24/08:30am 9.8 7.8 6.2 78 1.7 NE 6 9 3 5 1018.4 1018.3 1.2
24/08:00am 8.8 6.5 5.9 82 1.3 NE 7 11 4 6 1018.1 1018.0 1.2
24/07:30am 8.2 5.9 5.5 83 1.2 E 7 11 4 6 1018.1 1018.0 1.2
24/07:00am 7.6 5.5 5.9 89 0.8 S 6 9 3 5 1017.8 1017.7 1.2
24/06:30am 7.0 6.0 5.5 90 0.7 CALM 0 4 0 2 1017.9 1017.8 1.2
24/06:00am 6.9 4.7 5.2 89 0.7 S 6 9 3 5 1017.7 1017.6 1.2
24/05:30am 7.2 5.1 5.7 90 0.7 S 6 9 3 5 1017.5 1017.4 1.2
24/05:00am 7.1 5.0 5.9 92 0.5 S 6 9 3 5 1017.4 1017.3 1.2
24/04:30am 7.0 5.3 6.1 94 0.4 S 4 7 2 4 1017.3 1017.2 1.2
24/04:00am 6.8 5.9 6.2 96 0.3 CALM 0 0 0 0 1017.1 1017.0 1.2
24/03:30am 6.6 5.3 6.0 96 0.3 S 2 6 1 3 1017.1 1017.0 1.2
24/03:00am 6.5 5.5 5.8 95 0.3 CALM 0 0 0 0 1017.1 1017.0 1.2
24/02:30am 6.8 5.5 6.1 95 0.3 S 2 6 1 3 1017.2 1017.1 1.2
24/02:00am 6.8 5.9 6.1 95 0.3 CALM 0 0 0 0 1017.3 1017.2 1.2
24/01:30am 7.0 6.1 6.1 94 0.4 CALM 0 0 0 0 1017.2 1017.1 1.2
24/01:00am 6.7 5.7 5.7 93 0.4 CALM 0 0 0 0 1017.3 1017.2 1.2
24/12:30am 7.0 6.0 5.6 91 0.6 CALM 0 0 0 0 1017.4 1017.3 1.2
24/12:00am 8.1 7.2 5.9 86 1.0 CALM 0 0 0 0 1017.5 1017.4 1.2
 
Date/Time
WST
Temp
°C
App
Temp
°C
Dew
Point
°C
Rel
Hum
%
Delta-T
°C
Wind Press
QNH
hPa
Press
MSL
hPa
Rain since
9am
mm
Dir  Spd
km/h
Gust
km/h
Spd
kts
Gust
kts
23/11:30pm 9.0 7.0 6.4 84 1.2 S 6 7 3 4 1017.5 1017.4 1.2
23/11:00pm 9.0 7.6 5.7 80 1.5 S 2 9 1 5 1018.0 1017.9 1.2
23/10:30pm 9.7 7.4 5.9 77 1.7 S 7 11 4 6 1018.2 1018.1 1.2
23/10:00pm 10.0 7.9 5.6 74 2.0 S 6 9 3 5 1018.3 1018.2 1.2
23/09:30pm 10.2 8.7 6.7 79 1.6 S 4 9 2 5 1018.5 1018.4 1.2
23/09:00pm 10.0 8.1 6.5 79 1.6 S 6 9 3 5 1018.5 1018.4 1.2
23/08:30pm 9.8 6.5 6.3 79 1.6 S 13 20 7 11 1018.2 1018.1 1.2
23/08:00pm 9.9 8.2 5.9 76 1.8 SSW 4 9 2 5 1018.1 1018.0 0.8
23/07:30pm 10.4 8.2 5.2 70 2.4 SSW 6 7 3 4 1017.7 1017.6 0.8
23/07:00pm 11.2 7.6 5.1 66 2.8 SSW 13 22 7 12 1017.4 1017.3 0.8
23/06:30pm 11.8 7.8 4.8 62 3.2 SW 15 24 8 13 1017.0 1016.9 0.8
23/06:00pm 12.1 7.7 4.6 60 3.4 SW 17 30 9 16 1016.8 1016.7 0.8
23/05:30pm 12.7 8.1 3.9 55 4.0 SW 17 30 9 16 1016.4 1016.3 0.8
23/05:00pm 13.5 9.0 4.4 54 4.2 SW 17 32 9 17 1016.3 1016.2 0.8
23/04:30pm 14.4 9.6 4.4 51 4.6 SSW 19 32 10 17 1016.0 1015.9 0.8
23/04:00pm 14.2 9.6 3.9 50 4.7 SW 17 28 9 15 1015.7 1015.6 0.8
23/03:30pm 13.4 8.5 4.0 53 4.3 SW 19 33 10 18 1015.7 1015.6 0.8
23/03:00pm 13.1 8.0 4.3 55 4.0 SW 20 35 11 19 1015.6 1015.5 0.8
23/02:30pm 14.2 9.6 3.7 49 4.8 WSW 17 28 9 15 1015.3 1015.2 0.8
23/02:00pm 14.0 9.1 4.9 54 4.2 SW 20 41 11 22 1015.4 1015.3 0.8
23/01:30pm 14.5 10.1 6.6 59 3.8 SSW 19 30 10 16 1015.4 1015.3 0.6

Other Formats:

Comma delimited format used in spreadsheet applications
http://www.bom.gov.au/fwo/IDW60801/IDW60801.94608.axf

JavaScript Object Notation format (JSON) in row-major order
http://www.bom.gov.au/fwo/IDW60801/IDW60801.94608.json